createdAt,value
2023-04-27T00:02:36.000Z,28.43
2023-04-27T00:07:36.000Z,29.57
2023-04-27T00:12:36.000Z,28.82
2023-04-27T00:17:35.000Z,28.82
2023-04-27T00:22:35.000Z,29.3
2023-04-27T00:27:36.000Z,29.6
2023-04-27T00:32:36.000Z,28.86
2023-04-27T00:37:35.000Z,28.34
2023-04-27T00:42:35.000Z,29.5
2023-04-27T00:47:36.000Z,29.77
2023-04-27T00:52:35.000Z,30.94
2023-04-27T00:57:35.000Z,30.25
2023-04-27T01:02:36.000Z,28.31
2023-04-27T01:07:36.000Z,25.41
2023-04-27T01:12:35.000Z,23.94
2023-04-27T01:17:36.000Z,22.81
2023-04-27T01:22:36.000Z,21.85
2023-04-27T01:27:35.000Z,23.31
2023-04-27T01:32:36.000Z,23.31
2023-04-27T01:37:35.000Z,26.58
2023-04-27T01:42:35.000Z,26.83
2023-04-27T01:47:35.000Z,25.46
2023-04-27T01:52:36.000Z,26.62
2023-04-27T01:57:35.000Z,23.14
2023-04-27T02:02:36.000Z,23.33
2023-04-27T02:07:36.000Z,24.72
2023-04-27T02:12:36.000Z,23.16
2023-04-27T02:17:36.000Z,23.13
2023-04-27T02:22:36.000Z,25.1
2023-04-27T02:27:37.000Z,31.96
2023-04-27T02:32:35.000Z,30.19
2023-04-27T02:37:36.000Z,30.19
2023-04-27T02:42:35.000Z,30.77
2023-04-27T02:47:36.000Z,31.43
2023-04-27T02:52:36.000Z,31.54
2023-04-27T02:57:36.000Z,32.84
2023-04-27T03:02:35.000Z,31.19
2023-04-27T03:07:36.000Z,30.06
2023-04-27T03:12:36.000Z,30.28
2023-04-27T03:17:36.000Z,31.13
2023-04-27T03:22:35.000Z,29.69
2023-04-27T03:27:36.000Z,28.93
2023-04-27T03:32:35.000Z,27.97
2023-04-27T03:37:35.000Z,29.32
2023-04-27T03:42:36.000Z,31.26
2023-04-27T03:47:37.000Z,29.51
2023-04-27T03:52:35.000Z,29.51
2023-04-27T03:57:36.000Z,32.24
2023-04-27T04:02:36.000Z,35.86
2023-04-27T04:07:36.000Z,34.46
2023-04-27T04:12:35.000Z,35.99
2023-04-27T04:17:35.000Z,36.22
2023-04-27T04:22:36.000Z,35.36
2023-04-27T04:27:36.000Z,36.3
2023-04-27T04:32:36.000Z,33.32
2023-04-27T04:37:35.000Z,33.08
2023-04-27T04:42:36.000Z,33.54
2023-04-27T04:47:35.000Z,35.63
2023-04-27T04:52:36.000Z,36.8
2023-04-27T04:57:35.000Z,34.79
2023-04-27T05:02:36.000Z,34.79
2023-04-27T05:07:35.000Z,31.81
2023-04-27T05:12:36.000Z,33.64
2023-04-27T05:17:36.000Z,30.9
2023-04-27T05:22:35.000Z,30.28
2023-04-27T05:27:35.000Z,24.54
2023-04-27T05:32:36.000Z,25.6
2023-04-27T05:37:36.000Z,26.09
2023-04-27T05:42:36.000Z,19.17
2023-04-27T05:47:36.000Z,12.49
2023-04-27T05:52:35.000Z,14.98
2023-04-27T05:57:36.000Z,15.38
2023-04-27T06:02:36.000Z,10.97
2023-04-27T06:07:35.000Z,9.61
2023-04-27T06:12:36.000Z,9.61
2023-04-27T06:17:36.000Z,7.5
2023-04-27T06:22:35.000Z,10.31
2023-04-27T06:27:36.000Z,12.26
2023-04-27T06:32:35.000Z,13.25
2023-04-27T06:37:35.000Z,10.4
2023-04-27T06:42:36.000Z,9.54
2023-04-27T06:47:36.000Z,9.05
2023-04-27T06:52:36.000Z,8.91
2023-04-27T06:57:35.000Z,8.89
2023-04-27T07:02:36.000Z,7.97
2023-04-27T07:07:35.000Z,6.91
2023-04-27T07:12:35.000Z,6.89
2023-04-27T07:17:35.000Z,7.85
2023-04-27T07:22:35.000Z,8.22
2023-04-27T07:27:36.000Z,8.22
2023-04-27T07:32:35.000Z,8.79
2023-04-27T07:37:36.000Z,8.57
2023-04-27T07:42:36.000Z,8.17
2023-04-27T07:47:35.000Z,5.95
2023-04-27T07:52:36.000Z,5.88
2023-04-27T07:57:35.000Z,5.3
2023-04-27T08:02:36.000Z,5.98
2023-04-27T08:07:36.000Z,6.49
2023-04-27T08:12:36.000Z,7.22
2023-04-27T08:17:36.000Z,7.32
2023-04-27T08:22:35.000Z,7.87
2023-04-27T08:27:36.000Z,7.61
2023-04-27T08:32:36.000Z,8.56
2023-04-27T08:37:36.000Z,8.56
2023-04-27T08:42:36.000Z,8.6
2023-04-27T08:47:53.000Z,8.17
2023-04-27T08:52:36.000Z,8.87
2023-04-27T08:57:36.000Z,8.76
2023-04-27T09:02:36.000Z,9.19
2023-04-27T09:07:38.000Z,9.41
2023-04-27T09:12:35.000Z,9.73
2023-04-27T09:17:36.000Z,10.01
2023-04-27T09:22:35.000Z,11.22
2023-04-27T09:27:36.000Z,11.44
2023-04-27T09:32:35.000Z,12.48
2023-04-27T09:37:35.000Z,12.74
2023-04-27T09:42:36.000Z,12.26
2023-04-27T09:47:35.000Z,12.26
2023-04-27T09:52:35.000Z,12.39
2023-04-27T09:57:36.000Z,13.39
2023-04-27T10:02:36.000Z,13.75
2023-04-27T10:07:35.000Z,14.32
2023-04-27T10:12:36.000Z,15.87
2023-04-27T10:17:36.000Z,16.93
2023-04-27T10:22:36.000Z,16.23
2023-04-27T10:27:36.000Z,15.82
2023-04-27T10:32:36.000Z,16.18
2023-04-27T10:37:36.000Z,15.96
2023-04-27T10:42:37.000Z,16.71
2023-04-27T10:47:36.000Z,14.97
2023-04-27T10:52:36.000Z,15.52
2023-04-27T10:57:36.000Z,15.52
2023-04-27T11:02:36.000Z,15.64
2023-04-27T11:07:36.000Z,15.68
2023-04-27T11:12:35.000Z,15.75
2023-04-27T11:17:35.000Z,16.03
2023-04-27T11:22:36.000Z,16.28
2023-04-27T11:27:36.000Z,15.69
2023-04-27T11:32:36.000Z,14.95
2023-04-27T11:37:35.000Z,13.31
2023-04-27T11:42:36.000Z,13.42
2023-04-27T11:47:35.000Z,13.16
2023-04-27T11:52:36.000Z,13.56
2023-04-27T11:57:35.000Z,13.14
2023-04-27T12:02:36.000Z,11.63
2023-04-27T12:07:35.000Z,10.59
2023-04-27T12:12:35.000Z,10.59
2023-04-27T12:17:36.000Z,10.23
2023-04-27T12:22:35.000Z,9.56
2023-04-27T12:27:35.000Z,11.86
2023-04-27T12:32:36.000Z,12.38
2023-04-27T12:37:37.000Z,13.91
2023-04-27T12:42:58.000Z,13.88
2023-04-27T12:48:00.000Z,14.26
2023-04-27T12:52:35.000Z,13.98
2023-04-27T12:57:36.000Z,13.96
2023-04-27T13:02:36.000Z,14.14
2023-04-27T13:07:36.000Z,13.57
2023-04-27T13:12:35.000Z,11.88
2023-04-27T13:17:35.000Z,12.54
2023-04-27T13:22:36.000Z,12.54
2023-04-27T13:27:35.000Z,12.94
2023-04-27T13:32:36.000Z,11.98
2023-04-27T13:37:35.000Z,11.32
2023-04-27T13:42:35.000Z,11.3
2023-04-27T13:47:35.000Z,11.34
2023-04-27T13:52:36.000Z,10.74
2023-04-27T13:57:36.000Z,11.59
2023-04-27T14:02:36.000Z,10.69
2023-04-27T14:07:35.000Z,10.94
2023-04-27T14:12:35.000Z,11.72
2023-04-27T14:17:35.000Z,11.72
2023-04-27T14:22:36.000Z,10.53
2023-04-27T14:27:35.000Z,11.22
2023-04-27T14:32:36.000Z,11.23
2023-04-27T14:37:35.000Z,11.11
2023-04-27T14:42:36.000Z,10.19
2023-04-27T14:47:36.000Z,10.68
2023-04-27T14:52:35.000Z,11.12
2023-04-27T14:57:36.000Z,11.01
2023-04-27T15:02:35.000Z,11.21
2023-04-27T15:07:36.000Z,11.59
2023-04-27T15:12:46.000Z,12.39
2023-04-27T15:17:35.000Z,13.55
2023-04-27T15:22:35.000Z,14.9
2023-04-27T15:27:35.000Z,15.94
2023-04-27T15:32:36.000Z,15.94
2023-04-27T15:37:36.000Z,21.16
2023-04-27T15:42:36.000Z,17.88
2023-04-27T15:47:35.000Z,12.92
2023-04-27T15:52:36.000Z,14.67
2023-04-27T15:57:36.000Z,14.48
2023-04-27T16:02:36.000Z,21.84
2023-04-27T16:07:35.000Z,21.96
2023-04-27T16:12:36.000Z,23.62
2023-04-27T16:17:35.000Z,23.98
2023-04-27T16:22:35.000Z,18.29
2023-04-27T16:27:36.000Z,19.38
2023-04-27T16:32:36.000Z,18.58
2023-04-27T16:37:35.000Z,15.38
2023-04-27T16:42:35.000Z,15.38
2023-04-27T16:47:35.000Z,14.76
2023-04-27T16:52:36.000Z,16.24
2023-04-27T16:57:35.000Z,16.44
2023-04-27T17:02:36.000Z,16.57
2023-04-27T17:07:36.000Z,18.53
2023-04-27T17:12:36.000Z,21.69
2023-04-27T17:17:35.000Z,22.1
2023-04-27T17:22:36.000Z,23.56
2023-04-27T17:27:36.000Z,25.37
2023-04-27T17:32:36.000Z,29.27
2023-04-27T17:37:36.000Z,29.58
2023-04-27T17:42:35.000Z,33.71
2023-04-27T17:47:36.000Z,37.38
2023-04-27T17:52:35.000Z,43.59
2023-04-27T17:57:36.000Z,43.59
2023-04-27T18:02:36.000Z,54.82
2023-04-27T18:07:35.000Z,53.65
2023-04-27T18:12:36.000Z,59.87
2023-04-27T18:17:35.000Z,52.98
2023-04-27T18:22:35.000Z,66.55
2023-04-27T18:27:35.000Z,57.65
2023-04-27T18:32:35.000Z,51.28
2023-04-27T18:37:35.000Z,53.14
2023-04-27T18:42:35.000Z,48.05
2023-04-27T18:47:36.000Z,44.94
2023-04-27T18:52:36.000Z,43.02
2023-04-27T18:57:36.000Z,49.6
2023-04-27T19:02:36.000Z,52.61
2023-04-27T19:07:36.000Z,52.42
2023-04-27T19:12:35.000Z,52.42
2023-04-27T19:17:36.000Z,49.2
2023-04-27T19:22:35.000Z,50.17
2023-04-27T19:27:36.000Z,47.24
2023-04-27T19:32:36.000Z,61.74
2023-04-27T19:37:35.000Z,68.62
2023-04-27T19:42:36.000Z,65.07
2023-04-27T19:47:36.000Z,57.88
2023-04-27T19:52:35.000Z,46.7
2023-04-27T19:57:35.000Z,44.94
2023-04-27T20:02:35.000Z,41.38
2023-04-27T20:07:36.000Z,38.28
2023-04-27T20:13:05.000Z,39.5
2023-04-27T20:17:36.000Z,43.08
2023-04-27T20:22:35.000Z,43.08
2023-04-27T20:27:35.000Z,39.33
2023-04-27T20:32:36.000Z,40.44
2023-04-27T20:37:35.000Z,40.08
2023-04-27T20:42:36.000Z,38.69
2023-04-27T20:47:36.000Z,38.5
2023-04-27T20:52:40.000Z,38.44
2023-04-27T20:57:35.000Z,37.17
2023-04-27T21:02:36.000Z,38.37
2023-04-27T21:07:36.000Z,39.48
2023-04-27T21:12:36.000Z,43.13
2023-04-27T21:17:36.000Z,38.12
2023-04-27T21:22:35.000Z,39.61
2023-04-27T21:27:36.000Z,38.49
2023-04-27T21:32:35.000Z,39.79
2023-04-27T21:37:36.000Z,39.79
2023-04-27T21:42:35.000Z,39.45
2023-04-27T21:47:36.000Z,38.41
2023-04-27T21:52:36.000Z,43.91
2023-04-27T21:57:35.000Z,40.91
2023-04-27T22:02:35.000Z,34.86
2023-04-27T22:07:36.000Z,33.14
2023-04-27T22:12:36.000Z,33.32
2023-04-27T22:17:36.000Z,37.73
2023-04-27T22:22:35.000Z,33.1
2023-04-27T22:27:45.000Z,33.91
2023-04-27T22:32:35.000Z,38.05
2023-04-27T22:37:39.000Z,37.36
2023-04-27T22:42:35.000Z,36.47
2023-04-27T22:47:36.000Z,36.47
2023-04-27T22:52:35.000Z,41.9
2023-04-27T22:57:36.000Z,58.7
2023-04-27T23:02:36.000Z,56.94
2023-04-27T23:07:35.000Z,45.17
2023-04-27T23:12:36.000Z,44.11
2023-04-27T23:17:35.000Z,39.71
2023-04-27T23:22:36.000Z,38.6
2023-04-27T23:27:36.000Z,37.08
2023-04-27T23:32:36.000Z,35.4
2023-04-27T23:37:36.000Z,37.52
2023-04-27T23:42:36.000Z,37.24
2023-04-27T23:47:35.000Z,37.11
2023-04-27T23:52:35.000Z,35.14
2023-04-27T23:57:36.000Z,35.16
